createdAt,value
2019-04-27T00:02:01.521Z,18.00
2019-04-27T00:04:43.540Z,18.00
2019-04-27T00:07:33.732Z,16.90
2019-04-27T00:10:24.388Z,14.97
2019-04-27T00:12:57.289Z,17.67
2019-04-27T00:15:38.804Z,15.17
2019-04-27T00:18:23.562Z,14.80
2019-04-27T00:21:03.618Z,13.60
2019-04-27T00:23:35.538Z,14.93
2019-04-27T00:26:07.264Z,14.03
2019-04-27T00:28:38.988Z,14.43
2019-04-27T00:31:10.681Z,13.37
2019-04-27T00:33:43.491Z,12.53
2019-04-27T00:36:28.177Z,13.17
2019-04-27T00:39:23.093Z,13.20
2019-04-27T00:41:55.077Z,14.33
2019-04-27T00:44:26.804Z,14.60
2019-04-27T00:46:58.516Z,15.50
2019-04-27T00:49:30.349Z,14.83
2019-04-27T00:52:03.643Z,14.70
2019-04-27T00:54:35.592Z,14.37
2019-04-27T00:57:14.834Z,15.37
2019-04-27T01:00:18.428Z,15.60
2019-04-27T01:02:56.344Z,16.17
2019-04-27T01:05:28.924Z,15.47
2019-04-27T01:08:00.649Z,14.37
2019-04-27T01:10:33.488Z,14.20
2019-04-27T01:13:05.422Z,14.83
2019-04-27T01:15:37.156Z,13.97
2019-04-27T01:18:14.477Z,13.03
2019-04-27T01:20:42.614Z,12.23
2019-04-27T01:23:14.625Z,12.40
2019-04-27T01:26:00.362Z,12.67
2019-04-27T01:28:38.817Z,12.87
2019-04-27T01:31:11.901Z,12.43
2019-04-27T01:33:43.704Z,11.80
2019-04-27T01:36:15.476Z,11.87
2019-04-27T01:38:47.176Z,12.40
2019-04-27T01:41:19.299Z,12.70
2019-04-27T01:43:51.115Z,10.93
2019-04-27T01:46:22.951Z,11.33
2019-04-27T01:48:54.685Z,12.30
2019-04-27T01:51:26.512Z,11.47
2019-04-27T01:53:59.398Z,11.70
2019-04-27T01:56:31.344Z,12.13
2019-04-27T01:59:03.356Z,13.63
2019-04-27T02:01:53.741Z,13.80
2019-04-27T02:04:39.768Z,13.00
2019-04-27T02:07:11.602Z,13.57
2019-04-27T02:09:43.418Z,15.50
2019-04-27T02:12:15.167Z,14.90
2019-04-27T02:14:46.969Z,15.60
2019-04-27T02:17:18.829Z,16.50
2019-04-27T02:19:50.698Z,16.53
2019-04-27T02:22:22.666Z,16.57
2019-04-27T02:24:54.571Z,17.33
2019-04-27T02:27:28.709Z,15.73
2019-04-27T02:30:20.699Z,17.53
2019-04-27T02:33:15.177Z,17.10
2019-04-27T02:35:50.243Z,17.23
2019-04-27T02:38:20.829Z,17.63
2019-04-27T02:40:59.812Z,17.93
2019-04-27T02:43:55.081Z,17.77
2019-04-27T02:46:31.041Z,17.87
2019-04-27T02:49:06.310Z,19.07
2019-04-27T02:51:59.287Z,19.33
2019-04-27T02:54:30.606Z,19.57
2019-04-27T02:57:02.424Z,21.17
2019-04-27T02:59:34.146Z,21.47
2019-04-27T03:02:34.633Z,21.60
2019-04-27T03:05:07.455Z,21.13
2019-04-27T03:07:39.849Z,21.57
2019-04-27T03:10:13.079Z,21.50
2019-04-27T03:12:50.143Z,21.90
2019-04-27T03:15:30.577Z,23.30
2019-04-27T03:18:09.913Z,22.03
2019-04-27T03:20:50.182Z,22.37
2019-04-27T03:23:21.514Z,22.37
2019-04-27T03:26:31.136Z,22.70
2019-04-27T03:29:03.271Z,22.50
2019-04-27T03:31:34.985Z,24.97
2019-04-27T03:34:11.872Z,25.33
2019-04-27T03:36:40.713Z,26.63
2019-04-27T03:39:12.535Z,26.37
2019-04-27T03:41:44.414Z,26.10
2019-04-27T03:44:16.321Z,27.40
2019-04-27T03:46:49.648Z,27.30
2019-04-27T03:49:34.624Z,26.73
2019-04-27T03:52:03.071Z,27.70
2019-04-27T03:54:41.355Z,28.27
2019-04-27T03:57:25.692Z,27.77
2019-04-27T03:59:59.648Z,30.00
2019-04-27T04:02:31.732Z,29.67
2019-04-27T04:05:04.633Z,30.20
2019-04-27T04:07:36.970Z,32.70
2019-04-27T04:10:10.824Z,30.97
2019-04-27T04:13:06.246Z,33.03
2019-04-27T04:15:45.757Z,32.47
2019-04-27T04:18:19.682Z,31.20
2019-04-27T04:20:51.413Z,32.23
2019-04-27T04:23:23.139Z,33.10
2019-04-27T04:25:54.873Z,32.87
2019-04-27T04:28:26.679Z,32.57
2019-04-27T04:31:00.479Z,34.97
2019-04-27T04:33:32.017Z,32.97
2019-04-27T04:36:03.745Z,31.67
2019-04-27T04:38:35.671Z,32.33
2019-04-27T04:41:10.505Z,31.43
2019-04-27T04:43:51.573Z,30.80
2019-04-27T04:46:42.492Z,31.60
2019-04-27T04:49:14.294Z,31.77
2019-04-27T04:51:46.229Z,32.17
2019-04-27T04:54:20.237Z,31.53
2019-04-27T04:56:51.673Z,30.93
2019-04-27T04:59:23.598Z,31.33
2019-04-27T05:01:55.453Z,32.73
2019-04-27T05:04:29.053Z,32.27
2019-04-27T05:07:00.886Z,31.47
2019-04-27T05:09:32.616Z,32.57
2019-04-27T05:12:04.362Z,30.97
2019-04-27T05:14:36.064Z,32.63
2019-04-27T05:17:09.337Z,31.60
2019-04-27T05:19:41.305Z,29.20
2019-04-27T05:22:13.025Z,31.37
2019-04-27T05:24:46.661Z,30.67
2019-04-27T05:27:19.124Z,31.27
2019-04-27T05:29:50.976Z,31.23
2019-04-27T05:32:22.709Z,28.50
2019-04-27T05:34:54.421Z,31.23
2019-04-27T05:37:28.382Z,31.13
2019-04-27T05:39:59.753Z,29.53
2019-04-27T05:42:31.468Z,27.90
2019-04-27T05:45:41.942Z,27.97
2019-04-27T05:48:27.387Z,27.33
2019-04-27T05:50:58.775Z,25.53
2019-04-27T05:53:26.112Z,26.80
2019-04-27T05:55:59.390Z,25.80
2019-04-27T05:58:31.457Z,24.80
2019-04-27T06:01:03.285Z,24.97
2019-04-27T06:03:35.076Z,25.93
2019-04-27T06:06:06.836Z,23.80
2019-04-27T06:08:39.315Z,24.00
2019-04-27T06:11:11.396Z,24.27
2019-04-27T06:13:43.125Z,24.37
2019-04-27T06:16:14.848Z,23.13
2019-04-27T06:18:46.679Z,24.00
2019-04-27T06:21:19.571Z,22.43
2019-04-27T06:23:51.492Z,23.70
2019-04-27T06:26:23.332Z,24.37
2019-04-27T06:28:55.036Z,24.77
2019-04-27T06:31:26.773Z,27.00
2019-04-27T06:33:59.756Z,26.87
2019-04-27T06:36:31.635Z,25.73
2019-04-27T06:39:06.284Z,25.90
2019-04-27T06:41:39.765Z,24.90
2019-04-27T06:44:11.621Z,26.03
2019-04-27T06:46:43.367Z,26.40
2019-04-27T06:49:15.177Z,26.13
2019-04-27T06:51:46.921Z,28.83
2019-04-27T06:54:19.760Z,27.13
2019-04-27T06:56:52.299Z,28.67
2019-04-27T06:59:24.003Z,27.40
2019-04-27T07:01:55.829Z,27.57
2019-04-27T07:04:29.312Z,28.20
2019-04-27T07:07:01.728Z,30.57
2019-04-27T07:09:33.756Z,29.37
2019-04-27T07:12:05.537Z,32.53
2019-04-27T07:14:50.361Z,31.40
2019-04-27T07:17:11.001Z,34.87
2019-04-27T07:19:42.817Z,33.53
2019-04-27T07:22:14.645Z,32.30
2019-04-27T07:24:46.352Z,33.03
2019-04-27T07:27:20.970Z,34.00
2019-04-27T07:29:53.670Z,34.23
2019-04-27T07:32:25.354Z,30.80
2019-04-27T07:34:58.508Z,33.17
2019-04-27T07:37:30.505Z,32.97
2019-04-27T07:40:02.572Z,32.67
2019-04-27T07:42:34.311Z,33.97
2019-04-27T07:45:12.274Z,34.53
2019-04-27T07:47:44.740Z,33.93
2019-04-27T07:50:16.465Z,35.23
2019-04-27T07:52:48.701Z,32.37
2019-04-27T07:55:20.517Z,31.23
2019-04-27T07:57:52.233Z,31.90
2019-04-27T08:00:23.949Z,31.73
2019-04-27T08:02:55.685Z,32.03
2019-04-27T08:05:29.293Z,33.27
2019-04-27T08:08:01.036Z,33.00
2019-04-27T08:10:32.745Z,33.90
2019-04-27T08:13:04.808Z,32.60
2019-04-27T08:15:36.532Z,33.73
2019-04-27T08:18:09.004Z,33.83
2019-04-27T08:20:40.845Z,30.83
2019-04-27T08:23:12.579Z,30.10
2019-04-27T08:25:44.397Z,33.07
2019-04-27T08:28:30.265Z,29.87
2019-04-27T08:31:18.766Z,31.20
2019-04-27T08:33:50.545Z,28.10
2019-04-27T08:36:22.256Z,30.03
2019-04-27T08:38:54.079Z,29.03
2019-04-27T08:41:25.793Z,31.40
2019-04-27T08:43:58.718Z,30.73
2019-04-27T08:46:30.573Z,30.53
2019-04-27T08:49:02.402Z,30.47
2019-04-27T08:51:34.111Z,29.40
2019-04-27T08:54:05.919Z,29.57
2019-04-27T08:56:37.623Z,28.80
2019-04-27T08:59:09.611Z,30.17
2019-04-27T09:01:41.467Z,29.60
2019-04-27T09:04:13.329Z,33.60
2019-04-27T09:06:47.032Z,27.27
2019-04-27T09:09:30.784Z,29.40
2019-04-27T09:12:22.509Z,29.73
2019-04-27T09:15:10.080Z,27.40
2019-04-27T09:17:48.762Z,29.47
2019-04-27T09:20:49.317Z,27.93
2019-04-27T09:23:21.109Z,28.00
2019-04-27T09:25:52.827Z,26.20
2019-04-27T09:28:24.521Z,28.55
2019-04-27T09:30:56.455Z,26.80
2019-04-27T09:33:28.261Z,26.97
2019-04-27T09:35:59.991Z,26.27
2019-04-27T09:38:31.797Z,27.50
2019-04-27T09:41:03.730Z,26.30
2019-04-27T09:43:36.775Z,24.47
2019-04-27T09:46:08.654Z,25.57
2019-04-27T09:48:40.473Z,26.60
2019-04-27T09:51:12.225Z,24.30
2019-04-27T09:53:45.723Z,23.50
2019-04-27T09:56:17.861Z,25.55
2019-04-27T09:58:49.572Z,21.77
2019-04-27T10:01:21.506Z,23.45
2019-04-27T10:03:53.441Z,24.50
2019-04-27T10:06:29.330Z,22.40
2019-04-27T10:08:58.974Z,22.62
2019-04-27T10:11:30.816Z,22.22
2019-04-27T10:14:02.902Z,21.52
2019-04-27T10:16:36.565Z,21.48
2019-04-27T10:19:08.433Z,23.45
2019-04-27T10:21:40.274Z,20.30
2019-04-27T10:24:12.080Z,18.05
2019-04-27T10:26:44.043Z,20.77
2019-04-27T10:29:16.226Z,18.90
2019-04-27T10:31:48.303Z,19.67
2019-04-27T10:34:20.203Z,14.90
2019-04-27T10:36:52.021Z,13.43
2019-04-27T10:39:25.713Z,12.70
2019-04-27T10:41:57.440Z,14.15
2019-04-27T10:44:29.255Z,16.10
2019-04-27T10:47:01.064Z,14.65
2019-04-27T10:49:32.779Z,15.00
2019-04-27T10:52:05.871Z,15.43
2019-04-27T10:54:37.831Z,14.55
2019-04-27T10:57:09.548Z,14.53
2019-04-27T10:59:41.249Z,12.07
2019-04-27T11:02:13.111Z,12.30
2019-04-27T11:05:04.544Z,12.23
2019-04-27T11:07:37.997Z,10.65
2019-04-27T11:10:10.254Z,7.70
2019-04-27T11:12:42.140Z,9.90
2019-04-27T11:15:16.214Z,9.08
2019-04-27T11:17:48.164Z,10.35
2019-04-27T11:20:20.089Z,9.70
2019-04-27T11:22:51.922Z,9.38
2019-04-27T11:25:23.631Z,11.60
2019-04-27T11:27:55.927Z,10.65
2019-04-27T11:30:29.171Z,10.55
2019-04-27T11:33:00.895Z,8.18
2019-04-27T11:35:54.928Z,9.55
2019-04-27T11:38:26.702Z,8.28
2019-04-27T11:40:58.469Z,8.58
2019-04-27T11:43:30.189Z,8.00
2019-04-27T11:46:01.911Z,8.83
2019-04-27T11:48:33.740Z,8.13
2019-04-27T11:51:06.981Z,7.50
2019-04-27T11:53:38.854Z,8.40
2019-04-27T11:56:10.659Z,8.90
2019-04-27T11:58:42.412Z,8.47
2019-04-27T12:01:15.885Z,6.77
2019-04-27T12:03:47.977Z,7.30
2019-04-27T12:06:19.946Z,7.00
2019-04-27T12:08:51.675Z,6.50
2019-04-27T12:11:23.394Z,7.77
2019-04-27T12:13:56.166Z,7.33
2019-04-27T12:16:28.086Z,6.57
2019-04-27T12:19:00.150Z,6.67
2019-04-27T12:21:32.108Z,6.33
2019-04-27T12:24:04.123Z,5.83
2019-04-27T12:26:55.561Z,4.43
2019-04-27T12:29:47.324Z,3.40
2019-04-27T12:32:19.586Z,3.23
2019-04-27T12:34:51.301Z,4.30
2019-04-27T12:37:23.305Z,3.80
2019-04-27T12:39:55.485Z,4.13
2019-04-27T12:42:28.825Z,3.67
2019-04-27T12:45:00.660Z,3.67
2019-04-27T12:47:32.396Z,3.90
2019-04-27T12:50:06.097Z,3.70
2019-04-27T12:52:38.511Z,4.50
2019-04-27T12:55:20.522Z,4.53
2019-04-27T12:58:02.894Z,4.40
2019-04-27T13:00:37.870Z,4.13
2019-04-27T13:03:09.812Z,4.97
2019-04-27T13:05:41.529Z,5.30
2019-04-27T13:08:13.235Z,3.90
2019-04-27T13:10:45.136Z,5.73
2019-04-27T13:13:16.856Z,4.40
2019-04-27T13:15:48.677Z,3.80
2019-04-27T13:18:20.396Z,4.43
2019-04-27T13:20:52.212Z,5.10
2019-04-27T13:23:24.040Z,5.10
2019-04-27T13:25:56.456Z,5.00
2019-04-27T13:28:28.324Z,6.60
2019-04-27T13:31:00.076Z,6.80
2019-04-27T13:33:31.779Z,6.50
2019-04-27T13:36:07.275Z,6.33
2019-04-27T13:38:37.426Z,6.17
2019-04-27T13:41:10.277Z,7.43
2019-04-27T13:43:42.081Z,7.13
2019-04-27T13:46:46.039Z,6.40
2019-04-27T13:49:37.563Z,6.30
2019-04-27T13:52:11.582Z,6.87
2019-04-27T13:54:43.294Z,6.75
2019-04-27T13:57:18.116Z,6.28
2019-04-27T13:59:48.637Z,5.28
2019-04-27T14:02:23.481Z,5.65
2019-04-27T14:04:53.997Z,6.90
2019-04-27T14:07:26.706Z,5.30
2019-04-27T14:10:00.043Z,5.45
2019-04-27T14:12:31.873Z,5.80
2019-04-27T14:15:04.044Z,5.72
2019-04-27T14:17:35.741Z,4.97
2019-04-27T14:20:07.865Z,5.57
2019-04-27T14:22:41.276Z,4.80
2019-04-27T14:25:12.994Z,4.80
2019-04-27T14:27:44.702Z,3.73
2019-04-27T14:30:16.931Z,3.87
2019-04-27T14:32:48.727Z,4.07
2019-04-27T14:35:20.506Z,5.20
2019-04-27T14:37:52.221Z,3.73
2019-04-27T14:40:23.992Z,3.60
2019-04-27T14:42:55.823Z,4.07
2019-04-27T14:45:28.616Z,4.10
2019-04-27T14:48:00.478Z,3.70
2019-04-27T14:50:32.221Z,3.27
2019-04-27T14:53:03.998Z,3.17
2019-04-27T14:55:35.767Z,3.53
2019-04-27T14:58:08.744Z,3.03
2019-04-27T15:00:40.632Z,3.23
2019-04-27T15:03:12.345Z,2.87
2019-04-27T15:05:44.467Z,3.80
2019-04-27T15:08:16.168Z,3.77
2019-04-27T15:10:48.032Z,2.87
2019-04-27T15:13:19.857Z,3.13
2019-04-27T15:15:51.564Z,3.30
2019-04-27T15:18:26.455Z,3.60
2019-04-27T15:20:58.543Z,2.67
2019-04-27T15:23:31.975Z,2.30
2019-04-27T15:26:03.752Z,2.60
2019-04-27T15:28:37.382Z,2.50
2019-04-27T15:31:38.782Z,2.20
2019-04-27T15:34:29.505Z,2.70
2019-04-27T15:37:23.812Z,2.87
2019-04-27T15:40:20.838Z,3.07
2019-04-27T15:42:58.162Z,2.93
2019-04-27T15:45:29.968Z,2.90
2019-04-27T15:48:01.900Z,2.90
2019-04-27T15:50:33.609Z,3.47
2019-04-27T15:53:09.648Z,3.30
2019-04-27T15:55:39.603Z,2.97
2019-04-27T15:58:11.560Z,2.77
2019-04-27T16:00:43.292Z,2.70
2019-04-27T16:03:15.249Z,2.50
2019-04-27T16:05:47.009Z,2.93
2019-04-27T16:08:18.869Z,2.80
2019-04-27T16:10:50.638Z,2.60
2019-04-27T16:13:22.420Z,2.57
2019-04-27T16:15:55.237Z,2.83
2019-04-27T16:18:31.056Z,2.60
2019-04-27T16:21:02.909Z,2.30
2019-04-27T16:23:40.306Z,2.87
2019-04-27T16:26:11.304Z,2.80
2019-04-27T16:28:43.052Z,2.53
2019-04-27T16:31:15.417Z,3.27
2019-04-27T16:33:47.946Z,2.87
2019-04-27T16:36:20.772Z,2.50
2019-04-27T16:38:59.325Z,3.13
2019-04-27T16:41:32.938Z,2.37
2019-04-27T16:44:06.764Z,2.00
2019-04-27T16:46:39.477Z,2.50
2019-04-27T16:49:13.974Z,2.53
2019-04-27T16:51:45.910Z,2.70
2019-04-27T16:54:21.197Z,2.47
2019-04-27T16:56:58.269Z,1.97
2019-04-27T16:59:42.662Z,2.00
2019-04-27T17:01:58.835Z,1.40
2019-04-27T17:04:31.445Z,1.50
2019-04-27T17:07:03.606Z,1.30
2019-04-27T17:09:36.204Z,1.40
2019-04-27T17:12:09.199Z,1.10
2019-04-27T17:15:05.882Z,1.20
2019-04-27T17:17:51.681Z,1.37
2019-04-27T17:20:23.501Z,1.00
2019-04-27T17:22:55.217Z,2.17
2019-04-27T17:25:27.655Z,1.00
2019-04-27T17:28:05.568Z,1.47
2019-04-27T17:30:41.527Z,1.03
2019-04-27T17:33:29.682Z,1.33
2019-04-27T17:36:02.971Z,1.03
2019-04-27T17:38:35.020Z,1.20
2019-04-27T17:41:12.504Z,1.27
2019-04-27T17:43:42.869Z,1.70
2019-04-27T17:46:14.681Z,2.50
2019-04-27T17:48:48.360Z,1.67
2019-04-27T17:51:20.117Z,1.67
2019-04-27T17:53:51.938Z,1.60
2019-04-27T17:56:33.297Z,1.30
2019-04-27T17:58:58.634Z,1.50
2019-04-27T18:01:32.784Z,1.00
2019-04-27T18:04:06.518Z,1.10
2019-04-27T18:06:39.055Z,1.27
2019-04-27T18:09:18.607Z,1.60
2019-04-27T18:11:50.567Z,1.70
2019-04-27T18:14:22.368Z,2.67
2019-04-27T18:16:54.199Z,2.27
2019-04-27T18:19:48.457Z,1.90
2019-04-27T18:22:20.215Z,1.40
2019-04-27T18:25:03.306Z,1.10
2019-04-27T18:27:50.192Z,1.20
2019-04-27T18:30:42.173Z,1.60
2019-04-27T18:33:14.060Z,2.03
2019-04-27T18:35:45.899Z,2.43
2019-04-27T18:38:17.917Z,1.40
2019-04-27T18:40:49.671Z,1.40
2019-04-27T18:43:21.558Z,1.70
2019-04-27T18:45:53.310Z,1.90
2019-04-27T18:48:50.165Z,1.40
2019-04-27T18:51:29.298Z,2.10
2019-04-27T18:54:03.620Z,2.80
2019-04-27T18:56:38.491Z,2.13
2019-04-27T18:59:08.556Z,1.53
2019-04-27T19:01:40.538Z,1.60
2019-04-27T19:04:12.416Z,1.90
2019-04-27T19:06:44.300Z,2.23
2019-04-27T19:09:18.484Z,1.73
2019-04-27T19:11:56.194Z,1.30
2019-04-27T19:14:23.977Z,1.33
2019-04-27T19:16:55.710Z,1.30
2019-04-27T19:19:28.012Z,1.37
2019-04-27T19:22:00.210Z,1.60
2019-04-27T19:24:31.937Z,2.37
2019-04-27T19:27:18.045Z,2.03
2019-04-27T19:29:49.320Z,1.30
2019-04-27T19:32:21.162Z,2.00
2019-04-27T19:34:52.985Z,1.90
2019-04-27T19:37:24.878Z,1.60
2019-04-27T19:39:58.253Z,2.33
2019-04-27T19:42:30.189Z,2.27
2019-04-27T19:45:02.251Z,2.50
2019-04-27T19:47:34.133Z,2.20
2019-04-27T19:50:06.101Z,2.37
2019-04-27T19:52:38.908Z,2.73
2019-04-27T19:55:10.928Z,2.53
2019-04-27T19:57:42.894Z,2.33
2019-04-27T20:00:29.668Z,2.70
2019-04-27T20:03:02.442Z,2.47
2019-04-27T20:05:34.309Z,2.87
2019-04-27T20:08:09.742Z,2.70
2019-04-27T20:10:43.322Z,2.77
2019-04-27T20:13:15.416Z,2.23
2019-04-27T20:15:47.445Z,3.17
2019-04-27T20:18:20.907Z,2.63
2019-04-27T20:20:53.025Z,2.87
2019-04-27T20:23:25.015Z,2.30
2019-04-27T20:25:56.737Z,2.23
2019-04-27T20:28:28.482Z,2.30
2019-04-27T20:31:00.210Z,2.70
2019-04-27T20:33:32.042Z,2.67
2019-04-27T20:36:03.867Z,2.60
2019-04-27T20:38:35.783Z,2.83
2019-04-27T20:41:07.648Z,2.83
2019-04-27T20:43:39.578Z,4.27
2019-04-27T20:46:11.874Z,2.10
2019-04-27T20:48:43.845Z,2.47
2019-04-27T20:51:15.754Z,2.50
2019-04-27T20:53:51.643Z,2.63
2019-04-27T20:56:23.494Z,2.57
2019-04-27T20:58:55.229Z,2.47
2019-04-27T21:01:26.941Z,2.80
2019-04-27T21:04:00.906Z,2.40
2019-04-27T21:06:45.477Z,2.43
2019-04-27T21:09:17.964Z,2.63
2019-04-27T21:11:49.920Z,2.50
2019-04-27T21:14:21.859Z,3.20
2019-04-27T21:16:53.784Z,2.50
2019-04-27T21:19:25.662Z,3.17
2019-04-27T21:21:57.520Z,3.50
2019-04-27T21:24:31.084Z,3.33
2019-04-27T21:27:03.368Z,3.10
2019-04-27T21:29:35.440Z,3.13
2019-04-27T21:32:08.013Z,3.00
2019-04-27T21:34:41.350Z,3.57
2019-04-27T21:37:13.188Z,3.20
2019-04-27T21:39:44.919Z,3.13
2019-04-27T21:42:17.331Z,4.30
2019-04-27T21:44:50.941Z,3.13
2019-04-27T21:47:24.781Z,3.10
2019-04-27T21:49:57.797Z,3.50
2019-04-27T21:52:33.149Z,2.80
2019-04-27T21:55:05.156Z,3.03
2019-04-27T21:57:37.116Z,3.10
2019-04-27T22:00:24.930Z,3.03
2019-04-27T22:02:56.885Z,2.90
2019-04-27T22:05:28.761Z,3.03
2019-04-27T22:08:00.884Z,3.17
2019-04-27T22:10:34.506Z,2.80
2019-04-27T22:13:06.380Z,3.30
2019-04-27T22:15:38.256Z,2.70
2019-04-27T22:18:11.180Z,2.70
2019-04-27T22:20:43.210Z,2.77
2019-04-27T22:23:23.104Z,2.97
2019-04-27T22:25:55.120Z,3.17
2019-04-27T22:28:27.012Z,2.90
2019-04-27T22:30:58.985Z,3.20
2019-04-27T22:33:30.868Z,3.10
2019-04-27T22:36:02.876Z,2.80
2019-04-27T22:38:34.740Z,2.80
2019-04-27T22:41:14.951Z,2.60
2019-04-27T22:44:05.426Z,2.60
2019-04-27T22:46:38.063Z,2.97
2019-04-27T22:49:10.949Z,2.90
2019-04-27T22:51:43.239Z,3.03
2019-04-27T22:54:15.180Z,2.80
2019-04-27T22:56:47.478Z,2.70
2019-04-27T22:59:39.076Z,2.90
2019-04-27T23:02:21.746Z,2.70
2019-04-27T23:04:57.240Z,2.63
2019-04-27T23:07:29.117Z,2.87
2019-04-27T23:10:01.505Z,2.23
2019-04-27T23:12:33.861Z,2.30
2019-04-27T23:15:07.812Z,2.60
2019-04-27T23:18:05.078Z,2.40
2019-04-27T23:20:36.992Z,2.37
2019-04-27T23:23:08.869Z,2.63
2019-04-27T23:25:42.621Z,2.67
2019-04-27T23:28:14.511Z,2.47
2019-04-27T23:30:56.463Z,2.50
2019-04-27T23:33:28.345Z,2.50
2019-04-27T23:36:01.578Z,3.00
2019-04-27T23:38:33.640Z,2.50
2019-04-27T23:41:05.690Z,3.37
2019-04-27T23:43:37.558Z,3.67
2019-04-27T23:46:11.447Z,4.10
2019-04-27T23:48:43.193Z,4.20
2019-04-27T23:51:23.325Z,4.87
2019-04-27T23:53:55.196Z,5.50
2019-04-27T23:56:31.695Z,4.70
2019-04-27T23:59:04.677Z,4.57
